Time;durP1;ratioP1;P1;durP2;ratioP2;P2;SDS_P1;SDS_P2;PMS_P1;PMS_P2;Temp;Humidity;BMP_temperature;BMP_pressure;BME280_temperature;BME280_humidity;BME280_pressure;Samples;Min_cycle;Max_cycle;Signal;HPM_P1;HPM_P2
2021/12/28 00:01:00;;;;;;;3.47;1.90;;;;;;;6.94;81.26;95344.59;4935354;29;20455;-78
2021/12/28 00:03:29;;;;;;;3.53;2.20;;;;;;;6.88;81.46;95338.38;4935019;29;20569;-78
2021/12/28 00:05:58;;;;;;;5.00;2.47;;;;;;;6.86;81.41;95340.34;4934883;29;20123;-78
2021/12/28 00:08:26;;;;;;;7.57;2.72;;;;;;;6.85;81.72;95337.97;4935250;29;20462;-78
2021/12/28 00:10:55;;;;;;;7.68;3.10;;;;;;;6.83;81.88;95339.94;4935114;29;20048;-78
2021/12/28 00:13:23;;;;;;;5.00;2.78;;;;;;;6.81;82.00;95332.34;4935086;29;20063;-78
2021/12/28 00:16:02;;;;;;;7.47;3.63;;;;;;;6.78;81.56;95333.53;4934801;29;20051;-78
2021/12/28 00:18:31;;;;;;;7.25;3.85;;;;;;;6.74;81.78;95331.53;4934274;29;20059;-78
2021/12/28 00:21:01;;;;;;;5.88;2.67;;;;;;;6.70;81.67;95335.47;4934961;29;20052;-78
2021/12/28 00:23:33;;;;;;;5.60;3.08;;;;;;;6.66;81.80;95334.25;4934877;29;20067;-78
2021/12/28 00:26:00;;;;;;;6.63;3.10;;;;;;;6.61;81.87;95332.22;4934972;29;20059;-78
2021/12/28 00:28:28;;;;;;;4.68;3.08;;;;;;;6.57;82.20;95331.78;4935338;29;20052;-78
2021/12/28 00:30:56;;;;;;;3.28;2.50;;;;;;;6.56;82.31;95325.00;4934681;29;20047;-78
2021/12/28 00:33:25;;;;;;;3.95;2.42;;;;;;;6.54;82.41;95327.00;4934738;29;20458;-78
2021/12/28 00:35:54;;;;;;;4.45;2.90;;;;;;;6.51;82.17;95332.53;4934517;29;20434;-78
2021/12/28 00:38:26;;;;;;;9.90;3.05;;;;;;;6.50;82.27;95330.94;4935149;29;20064;-78
2021/12/28 00:40:57;;;;;;;7.22;3.67;;;;;;;6.46;82.28;95334.88;4934940;29;20055;-78
2021/12/28 00:43:25;;;;;;;5.43;3.20;;;;;;;6.43;82.28;95335.28;4934917;29;20257;-78
2021/12/28 00:45:53;;;;;;;6.40;2.88;;;;;;;6.40;82.53;95341.59;4934454;29;20052;-77
2021/12/28 00:48:21;;;;;;;4.57;2.67;;;;;;;6.38;82.32;95340.19;4934576;29;20103;-78
2021/12/28 00:50:52;;;;;;;4.88;2.20;;;;;;;6.34;82.38;95336.38;4934451;29;20540;-78
2021/12/28 00:53:21;;;;;;;2.22;2.00;;;;;;;6.30;82.42;95324.81;4934923;29;20067;-78
2021/12/28 00:55:48;;;;;;;3.00;2.70;;;;;;;6.25;82.79;95332.31;4934563;29;20442;-78
2021/12/28 00:58:16;;;;;;;2.90;2.65;;;;;;;6.25;82.75;95334.91;4934623;29;20510;-77
2021/12/28 01:00:44;;;;;;;3.95;2.80;;;;;;;6.20;82.66;95330.28;4934399;29;20063;-78
2021/12/28 01:03:13;;;;;;;2.47;2.28;;;;;;;6.15;82.94;95327.47;4935128;29;20048;-78
2021/12/28 01:05:41;;;;;;;4.63;2.70;;;;;;;6.13;83.14;95335.41;4934982;29;20060;-77
2021/12/28 01:08:09;;;;;;;2.67;2.47;;;;;;;6.12;83.20;95339.00;4934495;29;20059;-78
2021/12/28 01:10:41;;;;;;;4.15;2.88;;;;;;;6.12;83.09;95332.97;4934477;29;20502;-78
2021/12/28 01:13:09;;;;;;;4.70;2.40;;;;;;;6.11;83.18;95336.56;4934484;29;20059;-77
2021/12/28 01:15:38;;;;;;;2.78;2.30;;;;;;;6.08;82.85;95335.16;4934343;29;20073;-78
2021/12/28 01:18:06;;;;;;;3.17;2.38;;;;;;;6.03;83.03;95334.88;4934447;29;20073;-78
2021/12/28 01:20:34;;;;;;;5.32;3.17;;;;;;;6.03;83.06;95331.50;4934783;29;20078;-78
2021/12/28 01:23:02;;;;;;;4.50;2.40;;;;;;;6.00;82.88;95322.34;4935413;29;20058;-78
2021/12/28 01:25:29;;;;;;;5.18;2.92;;;;;;;5.98;83.06;95326.88;4934718;29;20544;-78
2021/12/28 01:27:58;;;;;;;4.20;2.47;;;;;;;5.95;82.94;95324.69;4934117;29;20071;-78
2021/12/28 01:30:27;;;;;;;5.88;3.17;;;;;;;5.92;83.11;95317.22;4937403;29;20490;-78
2021/12/28 01:32:58;;;;;;;4.63;3.03;;;;;;;5.91;83.25;95331.16;4937885;29;20054;-78
2021/12/28 01:35:27;;;;;;;3.40;2.58;;;;;;;5.89;83.39;95328.75;4938104;29;20055;-78
2021/12/28 01:37:55;;;;;;;3.55;2.47;;;;;;;5.89;83.14;95327.97;4937551;29;20055;-78
2021/12/28 01:40:25;;;;;;;3.05;2.53;;;;;;;5.88;83.44;95323.75;4937692;29;20052;-78
2021/12/28 01:43:12;;;;;;;3.00;2.58;;;;;;;5.88;83.21;95310.81;4937637;29;20051;-78
2021/12/28 01:45:44;;;;;;;5.80;2.42;;;;;;;5.84;83.08;95304.41;4928532;29;20055;-78
2021/12/28 01:48:18;;;;;;;4.20;2.55;;;;;;;5.80;83.33;95301.41;4937611;29;20450;-78
2021/12/28 01:50:46;;;;;;;4.47;2.78;;;;;;;5.80;83.26;95305.78;4937305;29;20058;-78
2021/12/28 01:53:15;;;;;;;17.20;3.80;;;;;;;5.82;83.81;95306.41;4937298;29;20051;-78
2021/12/28 01:55:45;;;;;;;7.18;2.72;;;;;;;5.84;83.95;95309.56;4937508;29;20133;-78
2021/12/28 01:58:15;;;;;;;5.72;1.85;;;;;;;5.86;83.79;95298.09;4937381;29;20502;-78
2021/12/28 02:00:46;;;;;;;7.63;3.30;;;;;;;5.88;83.11;95288.34;4937161;29;20466;-78
2021/12/28 02:03:17;;;;;;;4.07;2.42;;;;;;;5.89;82.70;95286.56;4937533;29;20051;-78
2021/12/28 02:05:46;;;;;;;7.03;2.47;;;;;;;5.87;82.72;95278.19;4937643;29;20048;-77
2021/12/28 02:08:14;;;;;;;4.78;2.50;;;;;;;5.86;82.83;95279.16;4938205;29;20449;-78
2021/12/28 02:10:44;;;;;;;8.85;1.88;;;;;;;5.84;82.47;95268.16;4937065;29;20051;-78
2021/12/28 02:13:12;;;;;;;8.43;2.28;;;;;;;5.83;82.42;95271.75;4937175;29;20055;-78
2021/12/28 02:15:42;;;;;;;4.75;2.22;;;;;;;5.85;82.87;95269.78;4936726;29;20052;-77
2021/12/28 02:18:12;;;;;;;4.35;1.73;;;;;;;5.89;82.52;95276.19;4936483;29;20506;-78
2021/12/28 02:20:42;;;;;;;4.57;1.60;;;;;;;5.94;82.99;95271.25;4937294;29;20043;-78
2021/12/28 02:23:09;;;;;;;6.80;2.03;;;;;;;5.98;82.90;95264.75;4937298;29;20058;-77
2021/12/28 02:25:38;;;;;;;5.45;1.90;;;;;;;6.03;82.39;95265.00;4937192;29;20067;-77
2021/12/28 02:28:07;;;;;;;6.15;2.22;;;;;;;6.05;82.34;95260.44;4937409;29;20051;-78
2021/12/28 02:30:36;;;;;;;8.85;2.72;;;;;;;6.06;81.93;95256.09;4937180;29;20524;-79
2021/12/28 02:33:05;;;;;;;8.77;2.42;;;;;;;6.04;81.96;95251.09;4936776;29;20047;-77
2021/12/28 02:35:34;;;;;;;5.07;2.15;;;;;;;6.00;81.62;95244.69;4936805;29;20067;-78
2021/12/28 02:38:04;;;;;;;7.40;2.95;;;;;;;5.95;81.97;95240.06;4936389;29;20055;-78
2021/12/28 02:40:33;;;;;;;9.43;2.83;;;;;;;5.95;82.28;95239.25;4935968;29;20051;-78
2021/12/28 02:43:03;;;;;;;8.65;3.63;;;;;;;5.96;81.99;95236.47;4936405;29;20525;-77
2021/12/28 02:45:34;;;;;;;7.68;2.22;;;;;;;5.93;81.91;95233.44;4936259;29;20527;-78
2021/12/28 02:48:02;;;;;;;9.60;2.30;;;;;;;5.93;81.96;95234.22;4936355;29;20518;-78
2021/12/28 02:50:34;;;;;;;4.68;2.22;;;;;;;5.94;81.66;95224.69;4936474;29;20055;-78
2021/12/28 02:53:03;;;;;;;6.15;2.28;;;;;;;5.94;81.88;95206.56;4936381;29;20059;-78
2021/12/28 02:55:34;;;;;;;6.82;2.38;;;;;;;5.96;82.03;95217.56;4936277;29;20052;-78
2021/12/28 02:58:04;;;;;;;7.90;2.10;;;;;;;5.99;81.87;95214.59;4935929;29;20153;-78
2021/12/28 03:00:36;;;;;;;5.75;2.55;;;;;;;6.01;81.32;95210.03;4936199;29;20062;-78
2021/12/28 03:03:08;;;;;;;7.60;3.72;;;;;;;6.00;81.36;95205.84;4936352;29;20052;-78
2021/12/28 03:05:38;;;;;;;11.32;2.75;;;;;;;5.99;81.37;95206.81;4936138;29;20067;-78
2021/12/28 03:08:07;;;;;;;3.45;1.77;;;;;;;5.96;81.27;95205.41;4935719;29;20055;-77
2021/12/28 03:10:35;;;;;;;9.13;2.60;;;;;;;5.94;81.34;95206.56;4936060;29;20052;-78
2021/12/28 03:13:04;;;;;;;9.77;2.70;;;;;;;5.92;81.29;95204.16;4936111;29;20048;-78
2021/12/28 03:15:32;;;;;;;6.43;2.47;;;;;;;5.91;81.39;95201.78;4935985;29;20051;-77
2021/12/28 03:18:00;;;;;;;6.68;2.17;;;;;;;5.91;81.48;95201.78;4935694;29;20055;-77
2021/12/28 03:20:28;;;;;;;10.50;2.70;;;;;;;5.91;81.49;95206.94;4935721;29;20498;-77
2021/12/28 03:22:55;;;;;;;6.03;2.10;;;;;;;5.90;81.70;95202.75;4935874;29;20506;-78
2021/12/28 03:25:24;;;;;;;8.52;2.40;;;;;;;5.91;81.57;95202.56;4935910;29;20055;-78
2021/12/28 03:27:52;;;;;;;11.23;3.22;;;;;;;5.92;81.60;95198.19;4935496;29;20064;-77
2021/12/28 03:30:20;;;;;;;7.15;3.35;;;;;;;5.93;81.43;95199.78;4935626;29;20051;-78
2021/12/28 03:32:47;;;;;;;7.30;2.70;;;;;;;5.93;81.43;95199.78;4935695;29;20423;-77
2021/12/28 03:35:16;;;;;;;11.38;3.47;;;;;;;5.93;81.32;95199.78;4935536;29;20506;-78
2021/12/28 03:37:44;;;;;;;13.13;3.75;;;;;;;5.93;81.36;95189.44;4935228;29;20051;-78
2021/12/28 03:40:15;;;;;;;9.65;3.25;;;;;;;5.93;81.53;95179.88;4935654;29;20048;-77
2021/12/28 03:42:44;;;;;;;13.30;2.92;;;;;;;5.92;81.47;95167.91;4935461;29;20048;-78
2021/12/28 03:45:13;;;;;;;8.40;4.10;;;;;;;5.91;81.61;95181.06;4935586;29;20052;-78
2021/12/28 03:47:41;;;;;;;11.25;4.07;;;;;;;5.87;81.81;95185.00;4935031;29;20075;-77
2021/12/28 03:50:11;;;;;;;8.40;3.53;;;;;;;5.85;81.97;95185.19;4935211;29;20525;-78
2021/12/28 03:52:39;;;;;;;9.15;4.10;;;;;;;5.85;81.89;95164.50;4935396;29;20052;-77
2021/12/28 03:55:09;;;;;;;8.85;3.53;;;;;;;5.82;81.92;95164.06;4935484;29;20071;-78
2021/12/28 03:57:39;;;;;;;10.07;5.15;;;;;;;5.81;82.29;95155.50;4935029;29;20462;-78
2021/12/28 04:00:11;;;;;;;10.38;5.40;;;;;;;5.81;83.01;95144.34;4934972;29;20051;-77
2021/12/28 04:02:39;;;;;;;11.00;5.18;;;;;;;5.81;82.66;95150.31;4935342;29;20044;-78
2021/12/28 04:05:07;;;;;;;7.03;4.85;;;;;;;5.80;82.84;95145.34;4935317;29;20051;-78
2021/12/28 04:07:35;;;;;;;7.75;4.93;;;;;;;5.81;82.69;95141.75;4934745;29;20044;-78
2021/12/28 04:10:04;;;;;;;11.25;5.80;;;;;;;5.81;82.52;95139.97;4934913;29;20047;-77
2021/12/28 04:12:32;;;;;;;11.45;5.90;;;;;;;5.81;82.25;95139.19;4934933;29;20055;-78
2021/12/28 04:15:00;;;;;;;10.18;4.85;;;;;;;5.83;82.42;95144.97;4935088;29;20056;-78
2021/12/28 04:17:31;;;;;;;6.75;3.40;;;;;;;5.88;82.38;95150.38;4934843;29;20055;-77
2021/12/28 04:19:58;;;;;;;7.25;3.30;;;;;;;5.94;82.57;95142.69;4934913;29;20047;-78
2021/12/28 04:22:27;;;;;;;7.72;3.67;;;;;;;6.03;82.47;95145.13;4934742;29;20502;-78
2021/12/28 04:24:54;;;;;;;5.90;3.42;;;;;;;6.07;82.00;95144.56;4935208;29;20450;-78
2021/12/28 04:27:22;;;;;;;8.23;4.18;;;;;;;6.12;81.75;95134.47;4934512;29;20060;-77
2021/12/28 04:29:50;;;;;;;12.90;4.93;;;;;;;6.17;81.48;95123.53;4934859;29;20063;-77
2021/12/28 04:32:18;;;;;;;13.75;5.63;;;;;;;6.19;81.88;95121.56;4934862;29;20059;-78
2021/12/28 04:34:52;;;;;;;9.27;4.75;;;;;;;6.16;81.42;95111.56;4935030;29;20102;-77
2021/12/28 04:37:19;;;;;;;9.82;5.50;;;;;;;6.13;81.44;95120.50;4934578;29;20529;-78
2021/12/28 04:39:47;;;;;;;11.18;6.00;;;;;;;6.10;81.78;95113.13;4934802;29;20054;-77
2021/12/28 04:42:15;;;;;;;8.77;5.68;;;;;;;6.08;81.89;95109.94;4935297;29;20047;-78
2021/12/28 04:44:42;;;;;;;10.43;5.68;;;;;;;6.08;82.12;95120.28;4935014;29;20067;-78
2021/12/28 04:47:10;;;;;;;9.68;5.60;;;;;;;6.09;81.97;95118.50;4934552;29;20126;-78
2021/12/28 04:49:37;;;;;;;10.05;5.90;;;;;;;6.09;81.80;95118.50;4934905;29;20059;-78
2021/12/28 04:52:07;;;;;;;12.02;6.28;;;;;;;6.10;82.23;95122.66;4934614;29;20051;-77
2021/12/28 04:54:36;;;;;;;8.63;5.45;;;;;;;6.11;82.05;95127.66;4934396;29;20052;-78
2021/12/28 04:57:04;;;;;;;14.85;6.00;;;;;;;6.12;81.63;95126.69;4934495;29;20056;-78
2021/12/28 04:59:33;;;;;;;8.30;4.93;;;;;;;6.15;81.63;95139.25;4934804;29;20079;-77
2021/12/28 05:02:01;;;;;;;14.07;6.43;;;;;;;6.17;81.59;95139.84;4934768;29;20056;-78
2021/12/28 05:04:29;;;;;;;7.45;4.78;;;;;;;6.18;81.54;95140.66;4936640;29;20135;-77
2021/12/28 05:06:57;;;;;;;8.98;5.35;;;;;;;6.19;81.62;95134.50;4938092;29;20078;-78
2021/12/28 05:09:25;;;;;;;9.57;5.15;;;;;;;6.19;81.15;95137.09;4938313;29;20063;-78
2021/12/28 05:11:53;;;;;;;8.73;4.70;;;;;;;6.18;80.86;95131.09;4938141;29;20422;-77
2021/12/28 05:14:21;;;;;;;9.50;5.63;;;;;;;6.18;80.81;95136.25;4938244;29;20044;-77
2021/12/28 05:16:48;;;;;;;9.75;5.85;;;;;;;6.17;81.04;95129.50;4937948;29;20445;-78
2021/12/28 05:19:16;;;;;;;7.45;4.88;;;;;;;6.15;80.88;95136.66;4938061;29;20513;-78
2021/12/28 05:21:44;;;;;;;8.55;5.53;;;;;;;6.17;81.20;95131.28;4937817;29;20056;-77
2021/12/28 05:24:11;;;;;;;8.30;5.88;;;;;;;6.18;81.49;95136.25;4938143;29;20110;-77
2021/12/28 05:26:40;;;;;;;12.02;5.88;;;;;;;6.18;81.17;95131.09;4937473;29;20044;-78
2021/12/28 05:29:08;;;;;;;9.13;5.75;;;;;;;6.19;81.27;95130.13;4937914;29;20055;-77
2021/12/28 05:31:35;;;;;;;8.48;5.68;;;;;;;6.22;81.18;95128.13;4937889;29;20063;-78
2021/12/28 05:34:07;;;;;;;8.30;5.40;;;;;;;6.22;81.33;95131.50;4937821;29;20471;-78
2021/12/28 05:36:35;;;;;;;9.73;5.25;;;;;;;6.24;81.42;95123.56;4937669;29;20060;-78
2021/12/28 05:39:04;;;;;;;9.02;6.57;;;;;;;6.24;81.27;95132.13;4937646;29;20056;-78
2021/12/28 05:41:31;;;;;;;7.38;4.82;;;;;;;6.27;81.50;95105.84;4937692;29;20117;-77
2021/12/28 05:44:00;;;;;;;7.75;5.60;;;;;;;6.28;81.15;95115.22;4937402;29;20047;-78
2021/12/28 05:46:28;;;;;;;10.93;7.07;;;;;;;6.31;82.00;95116.63;4937205;29;20052;-78
2021/12/28 05:48:55;;;;;;;7.15;5.55;;;;;;;6.35;82.26;95117.84;4937894;29;20052;-77
2021/12/28 05:51:23;;;;;;;9.30;5.68;;;;;;;6.41;82.00;95104.13;4937456;29;20055;-78
2021/12/28 05:53:50;;;;;;;12.35;6.38;;;;;;;6.45;81.96;95104.53;4937333;29;20055;-78
2021/12/28 05:56:18;;;;;;;9.80;5.53;;;;;;;6.49;82.08;95097.97;4937086;29;20055;-78
2021/12/28 05:58:46;;;;;;;10.10;6.40;;;;;;;6.52;81.83;95095.00;4937701;29;20056;-78
2021/12/28 06:01:15;;;;;;;9.10;6.63;;;;;;;6.52;81.82;95095.81;4937207;29;20067;-78
2021/12/28 06:03:42;;;;;;;7.28;5.78;;;;;;;6.54;82.01;95099.00;4937319;29;20121;-78
2021/12/28 06:06:10;;;;;;;8.38;5.85;;;;;;;6.58;81.83;95094.22;4937032;29;20058;-78
2021/12/28 06:08:37;;;;;;;10.23;5.50;;;;;;;6.60;81.82;95093.06;4937260;29;20048;-78
2021/12/28 06:11:07;;;;;;;8.90;5.82;;;;;;;6.58;82.20;95089.03;4936963;29;20498;-78
2021/12/28 06:13:35;;;;;;;8.20;4.97;;;;;;;6.57;81.81;95087.47;4936889;29;20064;-78
2021/12/28 06:16:02;;;;;;;9.23;5.60;;;;;;;6.57;82.22;95092.63;4935832;29;20063;-78
2021/12/28 06:18:31;;;;;;;8.85;5.53;;;;;;;6.57;82.40;95095.22;4937280;29;20130;-78
2021/12/28 06:20:59;;;;;;;6.53;5.07;;;;;;;6.58;82.17;95083.84;4936982;29;20692;-78
2021/12/28 06:23:26;;;;;;;9.02;5.68;;;;;;;6.56;82.01;95086.66;4936878;29;20063;-78
2021/12/28 06:25:54;;;;;;;9.10;5.80;;;;;;;6.54;81.97;95088.66;4936633;29;20056;-78
2021/12/28 06:28:21;;;;;;;7.22;5.32;;;;;;;6.51;81.99;95090.81;4936599;29;20071;-78
2021/12/28 06:30:49;;;;;;;7.53;5.30;;;;;;;6.49;82.32;95090.22;4936811;29;20067;-78
2021/12/28 06:33:17;;;;;;;9.43;5.38;;;;;;;6.46;82.44;95081.03;4936869;29;20514;-77
2021/12/28 06:35:46;;;;;;;7.50;5.40;;;;;;;6.46;82.61;95083.63;4936650;29;20056;-77
2021/12/28 06:38:14;;;;;;;8.38;4.88;;;;;;;6.48;82.40;95080.84;4936787;29;20060;-78
2021/12/28 06:40:41;;;;;;;5.65;4.63;;;;;;;6.49;82.69;95070.28;4937010;29;20568;-78
2021/12/28 06:43:09;;;;;;;9.00;4.95;;;;;;;6.51;82.63;95078.66;4936650;29;20055;-78
2021/12/28 06:45:37;;;;;;;4.82;3.60;;;;;;;6.54;82.72;95088.66;4936637;29;20062;-78
2021/12/28 06:48:05;;;;;;;4.85;3.50;;;;;;;6.57;82.23;95083.06;4936393;29;20146;-78
2021/12/28 06:50:33;;;;;;;4.22;3.70;;;;;;;6.60;82.49;95077.50;4936496;29;20430;-78
2021/12/28 06:53:02;;;;;;;5.15;3.80;;;;;;;6.66;82.40;95080.31;4936786;29;20055;-78
2021/12/28 06:55:30;;;;;;;7.47;5.28;;;;;;;6.70;82.42;95077.13;4936217;29;20419;-78
2021/12/28 06:57:57;;;;;;;5.50;3.83;;;;;;;6.73;82.37;95075.94;4936335;29;20062;-78
2021/12/28 07:00:25;;;;;;;4.60;3.22;;;;;;;6.73;82.40;95074.13;4936440;29;20406;-78
2021/12/28 07:02:53;;;;;;;6.05;4.50;;;;;;;6.76;82.18;95067.78;4936419;29;20055;-78
2021/12/28 07:05:21;;;;;;;8.40;4.00;;;;;;;6.74;81.65;95072.38;4936160;29;20054;-78
2021/12/28 07:07:49;;;;;;;9.60;4.82;;;;;;;6.74;81.73;95074.97;4935613;29;20051;-78
2021/12/28 07:10:20;;;;;;;6.25;3.90;;;;;;;6.72;81.91;95074.34;4936117;29;20059;-78
2021/12/28 07:12:50;;;;;;;5.38;3.95;;;;;;;6.70;81.69;95071.16;4936166;29;20056;-78
2021/12/28 07:15:18;;;;;;;5.57;3.47;;;;;;;6.69;81.80;95079.91;4935944;29;20060;-78
2021/12/28 07:17:46;;;;;;;5.05;3.58;;;;;;;6.68;81.89;95060.19;4935692;29;20055;-78
2021/12/28 07:20:14;;;;;;;5.50;4.18;;;;;;;6.67;82.00;95071.53;4936288;29;20052;-77
2021/12/28 07:22:42;;;;;;;6.15;4.65;;;;;;;6.66;82.07;95080.31;4935927;29;20052;-78
2021/12/28 07:25:11;;;;;;;7.40;4.93;;;;;;;6.65;81.99;95057.97;4936031;29;20055;-78
2021/12/28 07:27:40;;;;;;;5.70;3.90;;;;;;;6.65;82.13;95057.97;4935452;29;20067;-78
2021/12/28 07:30:12;;;;;;;6.90;4.60;;;;;;;6.62;82.18;95048.00;4957616;23;20059;-77
2021/12/28 07:32:41;;;;;;;8.43;5.20;;;;;;;6.58;82.41;95045.81;4954001;28;20097;-77
2021/12/28 07:35:10;;;;;;;7.00;5.20;;;;;;;6.57;82.35;95049.38;4955241;28;20067;-76
2021/12/28 07:37:38;;;;;;;7.35;5.43;;;;;;;6.58;82.40;95052.78;4954795;28;20055;-76
2021/12/28 07:40:07;;;;;;;6.32;4.53;;;;;;;6.57;82.28;95046.78;4955035;29;20073;-76
2021/12/28 07:42:35;;;;;;;6.10;4.68;;;;;;;6.55;82.43;95038.41;4941967;29;20056;-77
2021/12/28 07:45:05;;;;;;;5.78;4.90;;;;;;;6.56;82.40;95040.03;4950941;29;20051;-76
2021/12/28 07:47:33;;;;;;;6.28;4.40;;;;;;;6.58;82.39;95043.22;4947446;29;20051;-77
2021/12/28 07:50:06;;;;;;;5.68;4.00;;;;;;;6.61;82.48;95047.22;4936638;29;20087;-76
2021/12/28 07:52:34;;;;;;;5.70;3.83;;;;;;;6.60;82.53;95038.66;4935883;29;20052;-76
2021/12/28 07:55:05;;;;;;;6.85;4.45;;;;;;;6.62;82.49;95058.38;4944611;29;20437;-77
2021/12/28 07:57:34;;;;;;;6.82;4.30;;;;;;;6.62;82.27;95048.00;4948990;29;20052;-76
2021/12/28 08:00:02;;;;;;;4.05;3.65;;;;;;;6.65;82.47;95060.56;4935845;29;20058;-76
2021/12/28 08:02:31;;;;;;;4.47;4.03;;;;;;;6.65;82.21;95057.97;4936461;29;20056;-77
2021/12/28 08:04:59;;;;;;;3.55;3.25;;;;;;;6.67;82.22;95069.75;4936025;29;20051;-76
2021/12/28 08:07:26;;;;;;;4.60;3.78;;;;;;;6.68;82.31;95079.13;4935975;29;20125;-76
2021/12/28 08:09:54;;;;;;;6.50;3.58;;;;;;;6.70;82.20;95073.75;4950435;29;20048;-76
2021/12/28 08:12:23;;;;;;;4.07;3.45;;;;;;;6.74;82.27;95078.34;4956748;29;20103;-77
2021/12/28 08:14:51;;;;;;;3.90;3.50;;;;;;;6.77;82.40;95077.94;4956480;29;20488;-77
2021/12/28 08:17:18;;;;;;;4.68;3.75;;;;;;;6.81;82.38;95073.97;4947717;29;20066;-76
2021/12/28 08:19:47;;;;;;;6.65;4.38;;;;;;;6.84;82.41;95067.59;4939380;29;20048;-76
2021/12/28 08:22:15;;;;;;;4.07;3.67;;;;;;;6.83;82.14;95055.63;4935935;29;20078;-76
2021/12/28 08:24:42;;;;;;;4.65;3.33;;;;;;;6.81;82.36;95057.63;4936043;29;20070;-76
2021/12/28 08:27:10;;;;;;;4.40;3.45;;;;;;;6.77;82.32;95059.00;4935805;29;20078;-76
2021/12/28 08:29:38;;;;;;;4.03;3.22;;;;;;;6.75;82.51;95045.44;4935866;29;20047;-77
2021/12/28 08:32:08;;;;;;;4.07;3.28;;;;;;;6.74;82.94;95046.47;4936152;29;20047;-76
2021/12/28 08:34:36;;;;;;;3.20;2.67;;;;;;;6.74;82.64;95051.63;4935911;29;20063;-76
2021/12/28 08:37:05;;;;;;;3.38;2.38;;;;;;;6.74;82.57;95038.69;4935229;29;20054;-76
2021/12/28 08:39:32;;;;;;;3.13;2.63;;;;;;;6.75;82.79;95035.09;4938300;29;20063;-76
2021/12/28 08:42:00;;;;;;;4.50;2.97;;;;;;;6.75;82.52;95043.66;4939477;29;20506;-77
2021/12/28 08:44:28;;;;;;;3.38;2.35;;;;;;;6.75;82.80;95045.44;4939915;29;20055;-76
2021/12/28 08:46:56;;;;;;;3.80;2.72;;;;;;;6.73;83.13;95042.25;4939178;29;20056;-76
2021/12/28 08:49:25;;;;;;;2.60;2.40;;;;;;;6.73;82.98;95039.66;4940053;29;20505;-76
2021/12/28 08:51:53;;;;;;;2.95;2.63;;;;;;;6.70;82.99;95048.63;4939698;29;20106;-77
2021/12/28 08:54:22;;;;;;;4.80;3.10;;;;;;;6.72;83.03;95054.41;4939534;29;20055;-77
2021/12/28 08:56:51;;;;;;;2.65;2.42;;;;;;;6.72;83.11;95049.22;4938901;29;20059;-77
2021/12/28 08:59:19;;;;;;;3.25;2.70;;;;;;;6.75;83.12;95053.22;4938803;29;20425;-76
2021/12/28 09:01:49;;;;;;;6.55;3.38;;;;;;;6.78;83.38;95058.03;4938990;29;20409;-76
2021/12/28 09:04:17;;;;;;;4.30;3.40;;;;;;;6.84;83.35;95057.22;4938993;29;20051;-76
2021/12/28 09:06:45;;;;;;;4.00;2.60;;;;;;;6.90;83.25;95056.44;4938807;29;20044;-76
2021/12/28 09:09:13;;;;;;;3.80;2.53;;;;;;;6.95;83.29;95048.91;4938750;29;20055;-76
2021/12/28 09:11:44;;;;;;;5.93;2.80;;;;;;;6.96;83.09;95040.13;4938971;29;20135;-76
2021/12/28 09:14:12;;;;;;;3.35;2.38;;;;;;;6.98;83.15;95038.13;4938681;29;20047;-76
2021/12/28 09:16:39;;;;;;;2.80;2.40;;;;;;;6.97;83.13;95044.28;4937884;29;20075;-76
2021/12/28 09:19:07;;;;;;;3.60;2.20;;;;;;;6.99;83.41;95029.34;4938081;29;20052;-76
2021/12/28 09:21:35;;;;;;;3.28;2.42;;;;;;;7.01;83.16;95036.91;4938190;29;20048;-76
2021/12/28 09:24:03;;;;;;;3.00;2.17;;;;;;;6.98;83.16;95038.13;4938477;29;20066;-76
2021/12/28 09:26:52;;;;;;;3.90;2.00;;;;;;;6.99;83.27;95042.28;4938182;29;20114;-76
2021/12/28 09:29:19;;;;;;;4.35;2.17;;;;;;;7.00;83.19;95051.69;4938382;29;20063;-76
2021/12/28 09:31:48;;;;;;;2.40;1.88;;;;;;;7.05;83.39;95050.31;4938205;29;20407;-76
2021/12/28 09:34:16;;;;;;;4.10;1.67;;;;;;;7.09;83.52;95048.91;4938433;29;20058;-76
2021/12/28 09:36:57;;;;;;;1.80;1.70;;;;;;;7.14;83.42;95052.50;4938127;29;20414;-76
2021/12/28 09:39:26;;;;;;;1.55;1.45;;;;;;;7.19;83.39;95054.50;4938409;29;20055;-76
2021/12/28 09:41:59;;;;;;;1.80;1.70;;;;;;;7.27;83.40;95067.28;4938486;29;20115;-76
2021/12/28 09:44:27;;;;;;;;;;;;;;;7.33;83.28;95056.09;4938753;29;20058;-76
2021/12/28 09:46:55;;;;;;;1.83;1.52;;;;;;;7.36;83.15;95053.09;4937850;29;19923;-77
2021/12/28 09:49:24;;;;;;;4.10;2.25;;;;;;;7.43;83.08;95053.94;4937823;29;20052;-76
2021/12/28 09:51:52;;;;;;;4.50;1.58;;;;;;;7.51;82.69;95049.53;4938105;29;20058;-76
2021/12/28 09:54:20;;;;;;;1.67;1.58;;;;;;;7.58;82.63;95052.91;4937657;29;20608;-76
2021/12/28 09:56:47;;;;;;;2.45;2.03;;;;;;;7.69;82.67;95054.09;4937830;29;20054;-76
2021/12/28 09:59:16;;;;;;;2.47;1.90;;;;;;;7.81;82.54;95063.66;4938043;29;20051;-76
2021/12/28 10:01:44;;;;;;;1.77;1.65;;;;;;;7.96;82.03;95060.84;4937756;29;20071;-76
2021/12/28 10:04:12;;;;;;;2.05;1.73;;;;;;;8.09;81.78;95070.41;4937513;29;20422;-76
2021/12/28 10:06:42;;;;;;;1.52;1.42;;;;;;;8.18;81.46;95071.78;4937328;29;20048;-77
2021/12/28 10:09:13;;;;;;;1.63;1.50;;;;;;;8.21;80.97;95063.56;4937626;29;20079;-77
2021/12/28 10:11:44;;;;;;;1.88;1.70;;;;;;;8.21;81.11;95060.97;4937485;29;20055;-77
2021/12/28 10:14:19;;;;;;;1.58;1.48;;;;;;;8.24;80.41;95059.75;4937291;29;20051;-77
2021/12/28 10:16:51;;;;;;;1.42;1.33;;;;;;;8.29;80.59;95059.16;4937169;29;20056;-76
2021/12/28 10:19:31;;;;;;;1.95;1.63;;;;;;;8.31;80.51;95057.16;4937682;29;20475;-76
2021/12/28 10:22:20;;;;;;;1.65;1.50;;;;;;;8.32;80.60;95049.16;4937509;29;20466;-76
2021/12/28 10:24:49;;;;;;;2.03;1.77;;;;;;;8.34;80.73;95051.56;4938562;29;20456;-76
2021/12/28 10:27:19;;;;;;;1.70;1.42;;;;;;;8.36;80.81;95054.75;4938850;29;20532;-76
2021/12/28 10:29:49;;;;;;;1.38;1.27;;;;;;;8.38;80.83;95044.94;4937214;29;20506;-76
2021/12/28 10:32:19;;;;;;;1.00;0.90;;;;;;;8.40;80.57;95042.94;4937165;29;20447;-76
2021/12/28 10:34:48;;;;;;;1.13;0.90;;;;;;;8.44;80.60;95041.56;4937469;29;20059;-76
2021/12/28 10:37:18;;;;;;;2.33;1.00;;;;;;;8.45;80.82;95035.34;4936825;29;20051;-76
2021/12/28 10:39:47;;;;;;;0.85;0.70;;;;;;;8.47;80.89;95038.53;4937165;29;20048;-77
2021/12/28 10:42:50;;;;;;;0.93;0.88;;;;;;;8.53;80.70;95044.72;4937241;29;20058;-77
2021/12/28 10:45:21;;;;;;;0.70;0.70;;;;;;;8.56;80.64;95034.69;4937106;29;20052;-76
2021/12/28 10:47:51;;;;;;;0.60;0.57;;;;;;;8.59;80.80;95034.28;4936576;29;20059;-76
2021/12/28 10:50:29;;;;;;;0.70;0.70;;;;;;;8.62;81.03;95033.88;4936881;29;20055;-76
2021/12/28 10:53:11;;;;;;;1.02;0.70;;;;;;;8.69;81.01;95036.44;4936864;29;20062;-76
2021/12/28 10:55:40;;;;;;;0.65;0.60;;;;;;;8.83;80.93;95029.34;4936692;29;20047;-76
2021/12/28 10:58:11;;;;;;;0.70;0.60;;;;;;;9.00;80.52;95027.06;4936859;29;20047;-76
2021/12/28 11:00:43;;;;;;;0.90;0.77;;;;;;;9.14;80.01;95033.78;4945171;29;20056;-76
2021/12/28 11:03:30;;;;;;;1.95;0.43;;;;;;;9.27;79.72;95035.47;4951814;29;20490;-77
2021/12/28 11:06:00;;;;;;;0.40;0.40;;;;;;;9.31;79.51;95031.44;4949684;29;20135;-76
2021/12/28 11:08:29;;;;;;;0.80;0.63;;;;;;;9.29;79.57;95025.63;4950457;29;20059;-76
2021/12/28 11:11:03;;;;;;;0.77;0.70;;;;;;;9.30;79.56;95029.84;4945524;29;20048;-76
2021/12/28 11:13:33;;;;;;;0.50;0.50;;;;;;;9.32;79.55;95027.03;4950284;29;20052;-77
2021/12/28 11:16:04;;;;;;;1.67;0.50;;;;;;;9.31;79.60;95022.84;4951475;29;20058;-77
2021/12/28 11:18:35;;;;;;;1.38;0.55;;;;;;;9.32;79.53;95027.03;4940005;29;20510;-77
2021/12/28 11:21:12;;;;;;;0.65;0.47;;;;;;;9.32;79.43;95025.22;4937353;29;20523;-77
2021/12/28 11:23:40;;;;;;;0.60;0.40;;;;;;;9.32;79.77;95014.03;4936060;29;20056;-77
2021/12/28 11:26:12;;;;;;;0.93;0.32;;;;;;;9.33;79.66;95011.19;4936188;29;20043;-76
2021/12/28 11:28:42;;;;;;;1.00;0.50;;;;;;;9.34;79.61;95010.19;4951223;29;20051;-77
2021/12/28 11:31:15;;;;;;;1.05;0.50;;;;;;;9.34;79.69;95002.41;4954439;29;20051;-77
2021/12/28 11:33:53;;;;;;;0.85;0.45;;;;;;;9.35;79.48;95001.38;4953885;29;20067;-77
2021/12/28 11:36:24;;;;;;;0.98;0.45;;;;;;;9.37;79.58;94996.75;4936542;29;20075;-77
2021/12/28 11:38:53;;;;;;;0.47;0.40;;;;;;;9.39;79.61;94996.56;4936282;29;20171;-76
2021/12/28 11:41:21;;;;;;;0.28;0.28;;;;;;;9.41;79.69;95004.94;4936012;29;20059;-77
2021/12/28 11:43:49;;;;;;;0.20;0.20;;;;;;;9.43;79.60;95000.31;4935817;29;20059;-76
2021/12/28 11:46:18;;;;;;;0.43;0.30;;;;;;;9.43;79.65;94985.50;4935488;29;20048;-77
2021/12/28 11:48:50;;;;;;;0.95;0.38;;;;;;;9.44;79.73;94984.47;4935998;29;20055;-76
2021/12/28 11:51:20;;;;;;;0.73;0.40;;;;;;;9.44;79.55;94987.06;4935540;29;20044;-77